sensor_id;sensor_type;location;lat;lon;timestamp;temperature;humidity
16578;DHT22;8401;52.528;13.340;2023-04-24T00:01:24;13.80;99.90
16578;DHT22;8401;52.528;13.340;2023-04-24T00:03:50;13.80;99.90
16578;DHT22;8401;52.528;13.340;2023-04-24T00:06:16;13.70;99.90
16578;DHT22;8401;52.528;13.340;2023-04-24T00:08:42;13.70;99.90
16578;DHT22;8401;52.528;13.340;2023-04-24T00:11:08;13.70;99.90
16578;DHT22;8401;52.528;13.340;2023-04-24T00:13:35;13.70;99.90
16578;DHT22;8401;52.528;13.340;2023-04-24T00:16:00;13.60;99.90
16578;DHT22;8401;52.528;13.340;2023-04-24T00:18:26;13.60;99.90
16578;DHT22;8401;52.528;13.340;2023-04-24T00:20:52;13.60;99.90
16578;DHT22;8401;52.528;13.340;2023-04-24T00:23:17;13.50;99.90
16578;DHT22;8401;52.528;13.340;2023-04-24T00:25:43;13.50;99.90
16578;DHT22;8401;52.528;13.340;2023-04-24T00:28:09;13.50;99.90
16578;DHT22;8401;52.528;13.340;2023-04-24T00:30:34;13.40;99.90
16578;DHT22;8401;52.528;13.340;2023-04-24T00:33:00;13.40;99.90
16578;DHT22;8401;52.528;13.340;2023-04-24T00:35:25;13.40;99.90
16578;DHT22;8401;52.528;13.340;2023-04-24T00:37:51;13.30;99.90
16578;DHT22;8401;52.528;13.340;2023-04-24T00:40:17;13.30;99.90
16578;DHT22;8401;52.528;13.340;2023-04-24T00:42:43;13.30;99.90
16578;DHT22;8401;52.528;13.340;2023-04-24T00:45:09;13.30;99.90
16578;DHT22;8401;52.528;13.340;2023-04-24T00:47:35;13.20;99.90
16578;DHT22;8401;52.528;13.340;2023-04-24T00:50:03;13.20;99.90
16578;DHT22;8401;52.528;13.340;2023-04-24T00:52:29;13.10;99.90
16578;DHT22;8401;52.528;13.340;2023-04-24T00:54:56;13.10;99.90
16578;DHT22;8401;52.528;13.340;2023-04-24T00:57:22;13.10;99.90
16578;DHT22;8401;52.528;13.340;2023-04-24T00:59:49;13.10;99.90
16578;DHT22;8401;52.528;13.340;2023-04-24T01:02:15;13.10;99.90
16578;DHT22;8401;52.528;13.340;2023-04-24T01:04:41;13.10;99.90
16578;DHT22;8401;52.528;13.340;2023-04-24T01:07:07;13.10;99.90
16578;DHT22;8401;52.528;13.340;2023-04-24T01:09:37;13.10;99.90
16578;DHT22;8401;52.528;13.340;2023-04-24T01:12:03;13.10;99.90
16578;DHT22;8401;52.528;13.340;2023-04-24T01:14:29;13.10;99.90
16578;DHT22;8401;52.528;13.340;2023-04-24T01:16:56;13.10;99.90
16578;DHT22;8401;52.528;13.340;2023-04-24T01:19:22;13.10;99.90
16578;DHT22;8401;52.528;13.340;2023-04-24T01:21:51;13.10;99.90
16578;DHT22;8401;52.528;13.340;2023-04-24T01:24:19;13.10;99.90
16578;DHT22;8401;52.528;13.340;2023-04-24T01:26:45;13.10;99.90
16578;DHT22;8401;52.528;13.340;2023-04-24T01:29:11;13.00;99.90
16578;DHT22;8401;52.528;13.340;2023-04-24T01:31:38;13.00;99.90
16578;DHT22;8401;52.528;13.340;2023-04-24T01:34:05;13.00;99.90
16578;DHT22;8401;52.528;13.340;2023-04-24T01:36:32;12.90;99.90
16578;DHT22;8401;52.528;13.340;2023-04-24T01:38:58;13.00;99.90
16578;DHT22;8401;52.528;13.340;2023-04-24T01:41:24;13.00;99.90
16578;DHT22;8401;52.528;13.340;2023-04-24T01:43:50;13.00;99.90
16578;DHT22;8401;52.528;13.340;2023-04-24T01:46:16;13.00;99.90
16578;DHT22;8401;52.528;13.340;2023-04-24T01:48:42;13.00;99.90
16578;DHT22;8401;52.528;13.340;2023-04-24T01:51:08;13.00;99.90
16578;DHT22;8401;52.528;13.340;2023-04-24T01:53:33;13.10;99.90
16578;DHT22;8401;52.528;13.340;2023-04-24T01:55:59;13.10;99.90
16578;DHT22;8401;52.528;13.340;2023-04-24T01:58:25;13.00;99.90
16578;DHT22;8401;52.528;13.340;2023-04-24T02:00:51;13.10;99.90
16578;DHT22;8401;52.528;13.340;2023-04-24T02:03:17;13.10;99.90
16578;DHT22;8401;52.528;13.340;2023-04-24T02:05:46;13.00;99.90
16578;DHT22;8401;52.528;13.340;2023-04-24T02:08:11;13.00;99.90
16578;DHT22;8401;52.528;13.340;2023-04-24T02:10:37;13.00;99.90
16578;DHT22;8401;52.528;13.340;2023-04-24T02:13:03;13.00;99.90
16578;DHT22;8401;52.528;13.340;2023-04-24T02:15:30;12.90;99.90
16578;DHT22;8401;52.528;13.340;2023-04-24T02:17:55;12.90;99.90
16578;DHT22;8401;52.528;13.340;2023-04-24T02:20:21;13.00;99.90
16578;DHT22;8401;52.528;13.340;2023-04-24T02:22:47;13.00;99.90
16578;DHT22;8401;52.528;13.340;2023-04-24T02:25:12;13.10;99.90
16578;DHT22;8401;52.528;13.340;2023-04-24T02:27:38;12.90;99.90
16578;DHT22;8401;52.528;13.340;2023-04-24T02:30:04;13.00;99.90
16578;DHT22;8401;52.528;13.340;2023-04-24T02:32:30;12.90;99.90
16578;DHT22;8401;52.528;13.340;2023-04-24T02:34:56;12.80;99.90
16578;DHT22;8401;52.528;13.340;2023-04-24T02:37:21;13.00;99.90
16578;DHT22;8401;52.528;13.340;2023-04-24T02:39:47;12.90;99.90
16578;DHT22;8401;52.528;13.340;2023-04-24T02:42:13;13.00;99.90
16578;DHT22;8401;52.528;13.340;2023-04-24T02:44:38;13.10;99.90
16578;DHT22;8401;52.528;13.340;2023-04-24T02:47:04;13.10;99.90
16578;DHT22;8401;52.528;13.340;2023-04-24T02:49:30;13.10;99.90
16578;DHT22;8401;52.528;13.340;2023-04-24T02:51:55;13.10;99.90
16578;DHT22;8401;52.528;13.340;2023-04-24T02:54:21;13.10;99.90
16578;DHT22;8401;52.528;13.340;2023-04-24T02:56:47;13.10;99.90
16578;DHT22;8401;52.528;13.340;2023-04-24T02:59:12;13.10;99.90
16578;DHT22;8401;52.528;13.340;2023-04-24T03:01:38;13.10;99.90
16578;DHT22;8401;52.528;13.340;2023-04-24T03:04:03;13.10;99.90
16578;DHT22;8401;52.528;13.340;2023-04-24T03:06:29;13.10;99.90
16578;DHT22;8401;52.528;13.340;2023-04-24T03:08:56;13.10;99.90
16578;DHT22;8401;52.528;13.340;2023-04-24T03:11:22;13.10;99.90
16578;DHT22;8401;52.528;13.340;2023-04-24T03:13:47;13.10;99.90
16578;DHT22;8401;52.528;13.340;2023-04-24T03:16:13;13.10;99.90
16578;DHT22;8401;52.528;13.340;2023-04-24T03:18:39;13.00;99.90
16578;DHT22;8401;52.528;13.340;2023-04-24T03:21:05;13.00;99.90
16578;DHT22;8401;52.528;13.340;2023-04-24T03:23:30;13.00;99.90
16578;DHT22;8401;52.528;13.340;2023-04-24T03:25:56;13.20;99.90
16578;DHT22;8401;52.528;13.340;2023-04-24T03:28:22;13.10;99.90
16578;DHT22;8401;52.528;13.340;2023-04-24T03:30:47;13.00;99.90
16578;DHT22;8401;52.528;13.340;2023-04-24T03:33:13;13.20;99.90
16578;DHT22;8401;52.528;13.340;2023-04-24T03:35:39;13.20;99.90
16578;DHT22;8401;52.528;13.340;2023-04-24T03:38:04;13.20;99.90
16578;DHT22;8401;52.528;13.340;2023-04-24T03:40:30;13.30;99.90
16578;DHT22;8401;52.528;13.340;2023-04-24T03:42:55;13.20;99.90
16578;DHT22;8401;52.528;13.340;2023-04-24T03:45:21;13.40;99.90
16578;DHT22;8401;52.528;13.340;2023-04-24T03:47:47;13.30;99.90
16578;DHT22;8401;52.528;13.340;2023-04-24T03:50:13;13.20;99.90
16578;DHT22;8401;52.528;13.340;2023-04-24T03:52:38;13.30;99.90
16578;DHT22;8401;52.528;13.340;2023-04-24T03:55:04;13.40;99.90
16578;DHT22;8401;52.528;13.340;2023-04-24T03:57:31;13.40;99.90
16578;DHT22;8401;52.528;13.340;2023-04-24T03:59:57;13.50;99.90
16578;DHT22;8401;52.528;13.340;2023-04-24T04:02:23;13.40;99.90
16578;DHT22;8401;52.528;13.340;2023-04-24T04:04:48;13.40;99.90
16578;DHT22;8401;52.528;13.340;2023-04-24T04:07:14;13.30;99.90
16578;DHT22;8401;52.528;13.340;2023-04-24T04:09:40;13.40;99.90
16578;DHT22;8401;52.528;13.340;2023-04-24T04:12:09;13.40;99.90
16578;DHT22;8401;52.528;13.340;2023-04-24T04:14:34;13.40;99.90
16578;DHT22;8401;52.528;13.340;2023-04-24T04:17:00;13.50;99.90
16578;DHT22;8401;52.528;13.340;2023-04-24T04:19:26;13.40;99.90
16578;DHT22;8401;52.528;13.340;2023-04-24T04:21:51;13.40;99.90
16578;DHT22;8401;52.528;13.340;2023-04-24T04:24:19;13.50;99.90
16578;DHT22;8401;52.528;13.340;2023-04-24T04:26:46;13.50;99.90
16578;DHT22;8401;52.528;13.340;2023-04-24T04:29:13;13.50;99.90
16578;DHT22;8401;52.528;13.340;2023-04-24T04:31:39;13.40;99.90
16578;DHT22;8401;52.528;13.340;2023-04-24T04:34:04;13.40;99.90
16578;DHT22;8401;52.528;13.340;2023-04-24T04:36:31;13.30;99.90
16578;DHT22;8401;52.528;13.340;2023-04-24T04:38:56;13.30;99.90
16578;DHT22;8401;52.528;13.340;2023-04-24T04:41:24;13.30;99.90
16578;DHT22;8401;52.528;13.340;2023-04-24T04:43:50;13.40;99.90
16578;DHT22;8401;52.528;13.340;2023-04-24T04:46:16;13.40;99.90
16578;DHT22;8401;52.528;13.340;2023-04-24T04:48:41;13.30;99.90
16578;DHT22;8401;52.528;13.340;2023-04-24T04:51:07;13.20;99.90
16578;DHT22;8401;52.528;13.340;2023-04-24T04:53:33;13.20;99.90
16578;DHT22;8401;52.528;13.340;2023-04-24T04:55:58;13.30;99.90
16578;DHT22;8401;52.528;13.340;2023-04-24T04:58:25;13.50;99.90
16578;DHT22;8401;52.528;13.340;2023-04-24T05:00:50;13.50;99.90
16578;DHT22;8401;52.528;13.340;2023-04-24T05:03:16;13.40;99.90
16578;DHT22;8401;52.528;13.340;2023-04-24T05:05:42;13.40;99.90
16578;DHT22;8401;52.528;13.340;2023-04-24T05:08:08;13.50;99.90
16578;DHT22;8401;52.528;13.340;2023-04-24T05:10:34;13.50;99.90
16578;DHT22;8401;52.528;13.340;2023-04-24T05:12:59;13.40;99.90
16578;DHT22;8401;52.528;13.340;2023-04-24T05:15:26;13.50;99.90
16578;DHT22;8401;52.528;13.340;2023-04-24T05:17:51;13.30;99.90
16578;DHT22;8401;52.528;13.340;2023-04-24T05:20:17;13.30;99.90
16578;DHT22;8401;52.528;13.340;2023-04-24T05:22:43;13.30;99.90
16578;DHT22;8401;52.528;13.340;2023-04-24T05:25:08;13.40;99.90
16578;DHT22;8401;52.528;13.340;2023-04-24T05:27:34;13.50;99.90
16578;DHT22;8401;52.528;13.340;2023-04-24T05:30:00;13.40;99.90
16578;DHT22;8401;52.528;13.340;2023-04-24T05:32:25;13.50;99.90
16578;DHT22;8401;52.528;13.340;2023-04-24T05:34:52;13.60;99.90
16578;DHT22;8401;52.528;13.340;2023-04-24T05:37:18;13.40;99.90
16578;DHT22;8401;52.528;13.340;2023-04-24T05:39:43;13.40;99.90
16578;DHT22;8401;52.528;13.340;2023-04-24T05:42:09;13.50;99.90
16578;DHT22;8401;52.528;13.340;2023-04-24T05:44:35;13.60;99.90
16578;DHT22;8401;52.528;13.340;2023-04-24T05:47:00;13.50;99.90
16578;DHT22;8401;52.528;13.340;2023-04-24T05:49:27;13.60;99.90
16578;DHT22;8401;52.528;13.340;2023-04-24T05:51:52;13.40;99.90
16578;DHT22;8401;52.528;13.340;2023-04-24T05:54:18;13.40;99.90
16578;DHT22;8401;52.528;13.340;2023-04-24T05:56:44;13.30;99.90
16578;DHT22;8401;52.528;13.340;2023-04-24T05:59:10;13.30;99.90
16578;DHT22;8401;52.528;13.340;2023-04-24T06:01:35;13.30;99.90
16578;DHT22;8401;52.528;13.340;2023-04-24T06:04:02;13.40;99.90
16578;DHT22;8401;52.528;13.340;2023-04-24T06:06:28;13.40;99.90
16578;DHT22;8401;52.528;13.340;2023-04-24T06:08:54;13.40;99.90
16578;DHT22;8401;52.528;13.340;2023-04-24T06:11:20;13.40;99.90
16578;DHT22;8401;52.528;13.340;2023-04-24T06:13:45;13.40;99.90
16578;DHT22;8401;52.528;13.340;2023-04-24T06:16:11;13.50;99.90
16578;DHT22;8401;52.528;13.340;2023-04-24T06:18:37;13.50;99.90
16578;DHT22;8401;52.528;13.340;2023-04-24T06:21:03;13.60;99.90
16578;DHT22;8401;52.528;13.340;2023-04-24T06:23:28;13.60;99.90
16578;DHT22;8401;52.528;13.340;2023-04-24T06:25:54;13.60;99.90
16578;DHT22;8401;52.528;13.340;2023-04-24T06:28:20;13.60;99.90
16578;DHT22;8401;52.528;13.340;2023-04-24T06:30:46;13.70;99.90
16578;DHT22;8401;52.528;13.340;2023-04-24T06:33:11;13.70;99.90
16578;DHT22;8401;52.528;13.340;2023-04-24T06:35:37;13.80;99.90
16578;DHT22;8401;52.528;13.340;2023-04-24T06:38:06;14.00;99.90
16578;DHT22;8401;52.528;13.340;2023-04-24T06:40:31;14.30;99.90
16578;DHT22;8401;52.528;13.340;2023-04-24T06:42:57;14.30;99.90
16578;DHT22;8401;52.528;13.340;2023-04-24T06:45:25;14.40;99.90
16578;DHT22;8401;52.528;13.340;2023-04-24T06:47:51;14.50;99.90
16578;DHT22;8401;52.528;13.340;2023-04-24T06:50:17;14.50;99.90
16578;DHT22;8401;52.528;13.340;2023-04-24T06:52:43;14.60;99.90
16578;DHT22;8401;52.528;13.340;2023-04-24T06:55:09;14.70;99.90
16578;DHT22;8401;52.528;13.340;2023-04-24T06:57:36;14.70;99.90
16578;DHT22;8401;52.528;13.340;2023-04-24T07:00:03;14.90;99.90
16578;DHT22;8401;52.528;13.340;2023-04-24T07:02:30;15.20;99.90
16578;DHT22;8401;52.528;13.340;2023-04-24T07:04:56;15.40;99.90
16578;DHT22;8401;52.528;13.340;2023-04-24T07:07:22;15.40;99.90
16578;DHT22;8401;52.528;13.340;2023-04-24T07:09:49;15.40;99.90
16578;DHT22;8401;52.528;13.340;2023-04-24T07:12:16;15.30;99.90
16578;DHT22;8401;52.528;13.340;2023-04-24T07:14:42;15.30;99.90
16578;DHT22;8401;52.528;13.340;2023-04-24T07:17:08;15.30;99.90
16578;DHT22;8401;52.528;13.340;2023-04-24T07:19:34;15.40;99.90
16578;DHT22;8401;52.528;13.340;2023-04-24T07:22:00;15.60;99.90
16578;DHT22;8401;52.528;13.340;2023-04-24T07:24:26;15.90;99.90
16578;DHT22;8401;52.528;13.340;2023-04-24T07:26:53;16.00;99.90
16578;DHT22;8401;52.528;13.340;2023-04-24T07:29:19;15.90;99.90
16578;DHT22;8401;52.528;13.340;2023-04-24T07:31:45;15.90;99.90
16578;DHT22;8401;52.528;13.340;2023-04-24T07:34:11;16.10;99.90
16578;DHT22;8401;52.528;13.340;2023-04-24T07:36:36;16.20;99.90
16578;DHT22;8401;52.528;13.340;2023-04-24T07:39:04;16.20;99.90
16578;DHT22;8401;52.528;13.340;2023-04-24T07:41:30;16.40;99.90
16578;DHT22;8401;52.528;13.340;2023-04-24T07:43:58;16.40;99.90
16578;DHT22;8401;52.528;13.340;2023-04-24T07:46:27;16.70;99.90
16578;DHT22;8401;52.528;13.340;2023-04-24T07:48:55;16.70;99.90
16578;DHT22;8401;52.528;13.340;2023-04-24T07:51:21;16.60;99.90
16578;DHT22;8401;52.528;13.340;2023-04-24T07:53:47;17.10;99.90
16578;DHT22;8401;52.528;13.340;2023-04-24T07:56:12;17.40;99.90
16578;DHT22;8401;52.528;13.340;2023-04-24T07:58:38;17.50;99.90
16578;DHT22;8401;52.528;13.340;2023-04-24T08:01:04;17.40;99.90
16578;DHT22;8401;52.528;13.340;2023-04-24T08:03:29;17.90;99.90
16578;DHT22;8401;52.528;13.340;2023-04-24T08:05:55;17.90;99.90
16578;DHT22;8401;52.528;13.340;2023-04-24T08:08:22;18.20;99.90
16578;DHT22;8401;52.528;13.340;2023-04-24T08:10:48;18.80;99.90
16578;DHT22;8401;52.528;13.340;2023-04-24T08:13:13;18.90;99.90
16578;DHT22;8401;52.528;13.340;2023-04-24T08:15:39;19.20;99.90
16578;DHT22;8401;52.528;13.340;2023-04-24T08:18:05;19.80;99.90
16578;DHT22;8401;52.528;13.340;2023-04-24T08:20:31;19.50;99.90
16578;DHT22;8401;52.528;13.340;2023-04-24T08:22:56;19.00;99.90
16578;DHT22;8401;52.528;13.340;2023-04-24T08:25:22;19.10;99.90
16578;DHT22;8401;52.528;13.340;2023-04-24T08:27:50;19.40;99.90
16578;DHT22;8401;52.528;13.340;2023-04-24T08:30:16;19.10;99.90
16578;DHT22;8401;52.528;13.340;2023-04-24T08:32:42;19.30;99.90
16578;DHT22;8401;52.528;13.340;2023-04-24T08:35:08;19.40;99.90
16578;DHT22;8401;52.528;13.340;2023-04-24T08:37:36;19.20;99.90
16578;DHT22;8401;52.528;13.340;2023-04-24T08:40:15;19.40;99.90
16578;DHT22;8401;52.528;13.340;2023-04-24T08:42:44;19.60;99.90
16578;DHT22;8401;52.528;13.340;2023-04-24T08:45:11;19.30;99.90
16578;DHT22;8401;52.528;13.340;2023-04-24T08:47:41;19.70;99.90
16578;DHT22;8401;52.528;13.340;2023-04-24T08:50:08;19.40;99.90
16578;DHT22;8401;52.528;13.340;2023-04-24T08:52:34;19.00;99.90
16578;DHT22;8401;52.528;13.340;2023-04-24T08:55:01;19.50;99.90
16578;DHT22;8401;52.528;13.340;2023-04-24T08:57:27;19.90;99.90
16578;DHT22;8401;52.528;13.340;2023-04-24T08:59:54;19.80;99.90
16578;DHT22;8401;52.528;13.340;2023-04-24T09:02:23;19.40;99.90
16578;DHT22;8401;52.528;13.340;2023-04-24T09:04:49;19.10;99.90
16578;DHT22;8401;52.528;13.340;2023-04-24T09:07:17;18.70;99.90
16578;DHT22;8401;52.528;13.340;2023-04-24T09:09:44;18.80;99.90
16578;DHT22;8401;52.528;13.340;2023-04-24T09:12:10;18.20;99.90
16578;DHT22;8401;52.528;13.340;2023-04-24T09:14:36;17.90;99.90
16578;DHT22;8401;52.528;13.340;2023-04-24T09:17:06;17.60;99.90
16578;DHT22;8401;52.528;13.340;2023-04-24T09:19:31;17.80;99.90
16578;DHT22;8401;52.528;13.340;2023-04-24T09:21:57;18.00;99.90
16578;DHT22;8401;52.528;13.340;2023-04-24T09:24:23;17.60;99.90
16578;DHT22;8401;52.528;13.340;2023-04-24T09:26:55;17.40;99.90
16578;DHT22;8401;52.528;13.340;2023-04-24T09:29:22;17.40;99.90
16578;DHT22;8401;52.528;13.340;2023-04-24T09:31:48;17.30;99.90
16578;DHT22;8401;52.528;13.340;2023-04-24T09:34:14;18.30;99.90
16578;DHT22;8401;52.528;13.340;2023-04-24T09:36:41;18.60;99.90
16578;DHT22;8401;52.528;13.340;2023-04-24T09:39:12;18.70;99.90
16578;DHT22;8401;52.528;13.340;2023-04-24T09:41:54;18.70;99.90
16578;DHT22;8401;52.528;13.340;2023-04-24T09:44:25;18.30;99.90
16578;DHT22;8401;52.528;13.340;2023-04-24T09:46:55;18.20;99.90
16578;DHT22;8401;52.528;13.340;2023-04-24T09:49:26;18.20;99.90
16578;DHT22;8401;52.528;13.340;2023-04-24T09:52:09;18.80;99.90
16578;DHT22;8401;52.528;13.340;2023-04-24T09:54:36;18.90;99.90
16578;DHT22;8401;52.528;13.340;2023-04-24T09:57:06;19.30;99.90
16578;DHT22;8401;52.528;13.340;2023-04-24T09:59:32;19.90;99.90
16578;DHT22;8401;52.528;13.340;2023-04-24T10:01:59;20.10;99.90
16578;DHT22;8401;52.528;13.340;2023-04-24T10:04:28;20.20;99.90
16578;DHT22;8401;52.528;13.340;2023-04-24T10:06:57;20.60;99.90
16578;DHT22;8401;52.528;13.340;2023-04-24T10:11:51;21.20;99.90
16578;DHT22;8401;52.528;13.340;2023-04-24T10:14:23;20.60;99.90
16578;DHT22;8401;52.528;13.340;2023-04-24T10:16:52;20.60;99.90
16578;DHT22;8401;52.528;13.340;2023-04-24T10:19:18;21.90;99.90
16578;DHT22;8401;52.528;13.340;2023-04-24T10:21:44;21.50;99.90
16578;DHT22;8401;52.528;13.340;2023-04-24T10:24:17;21.50;99.90
16578;DHT22;8401;52.528;13.340;2023-04-24T10:26:44;20.80;99.90
16578;DHT22;8401;52.528;13.340;2023-04-24T10:29:12;21.10;99.90
16578;DHT22;8401;52.528;13.340;2023-04-24T10:31:38;20.40;99.90
16578;DHT22;8401;52.528;13.340;2023-04-24T10:34:05;19.90;99.90
16578;DHT22;8401;52.528;13.340;2023-04-24T10:36:34;20.00;99.90
16578;DHT22;8401;52.528;13.340;2023-04-24T10:39:02;20.20;99.90
16578;DHT22;8401;52.528;13.340;2023-04-24T10:41:30;20.10;99.90
16578;DHT22;8401;52.528;13.340;2023-04-24T10:44:10;19.90;99.90
16578;DHT22;8401;52.528;13.340;2023-04-24T10:46:37;19.40;99.90
16578;DHT22;8401;52.528;13.340;2023-04-24T10:49:07;19.30;99.90
16578;DHT22;8401;52.528;13.340;2023-04-24T10:51:51;19.10;99.90
16578;DHT22;8401;52.528;13.340;2023-04-24T10:54:29;18.60;99.90
16578;DHT22;8401;52.528;13.340;2023-04-24T10:59:50;18.80;99.90
16578;DHT22;8401;52.528;13.340;2023-04-24T11:02:36;19.20;99.90
16578;DHT22;8401;52.528;13.340;2023-04-24T11:05:03;19.40;99.90
16578;DHT22;8401;52.528;13.340;2023-04-24T11:07:29;20.80;99.90
16578;DHT22;8401;52.528;13.340;2023-04-24T11:09:59;21.80;99.90
16578;DHT22;8401;52.528;13.340;2023-04-24T11:12:26;21.30;99.90
16578;DHT22;8401;52.528;13.340;2023-04-24T11:17:42;21.10;99.90
16578;DHT22;8401;52.528;13.340;2023-04-24T11:20:10;20.80;99.90
16578;DHT22;8401;52.528;13.340;2023-04-24T11:22:39;21.50;99.90
16578;DHT22;8401;52.528;13.340;2023-04-24T11:25:06;21.20;99.90
16578;DHT22;8401;52.528;13.340;2023-04-24T11:28:02;20.90;99.90
16578;DHT22;8401;52.528;13.340;2023-04-24T11:30:31;20.90;99.90
16578;DHT22;8401;52.528;13.340;2023-04-24T11:33:04;19.80;99.90
16578;DHT22;8401;52.528;13.340;2023-04-24T11:35:47;19.10;99.90
16578;DHT22;8401;52.528;13.340;2023-04-24T11:38:14;18.50;99.90
16578;DHT22;8401;52.528;13.340;2023-04-24T11:40:40;17.90;99.90
16578;DHT22;8401;52.528;13.340;2023-04-24T11:43:07;17.10;99.90
16578;DHT22;8401;52.528;13.340;2023-04-24T11:45:33;16.30;99.90
16578;DHT22;8401;52.528;13.340;2023-04-24T11:47:59;15.90;99.90
16578;DHT22;8401;52.528;13.340;2023-04-24T11:50:26;16.00;99.90
16578;DHT22;8401;52.528;13.340;2023-04-24T11:52:53;16.20;99.90
16578;DHT22;8401;52.528;13.340;2023-04-24T11:57:46;16.90;99.90
16578;DHT22;8401;52.528;13.340;2023-04-24T12:00:38;17.60;99.90
16578;DHT22;8401;52.528;13.340;2023-04-24T12:03:08;18.30;99.90
16578;DHT22;8401;52.528;13.340;2023-04-24T12:05:34;18.50;99.90
16578;DHT22;8401;52.528;13.340;2023-04-24T12:08:00;18.70;99.90
16578;DHT22;8401;52.528;13.340;2023-04-24T12:10:28;19.10;99.90
16578;DHT22;8401;52.528;13.340;2023-04-24T12:12:56;19.20;99.90
16578;DHT22;8401;52.528;13.340;2023-04-24T12:15:22;19.30;99.90
16578;DHT22;8401;52.528;13.340;2023-04-24T12:17:50;19.20;99.90
16578;DHT22;8401;52.528;13.340;2023-04-24T12:20:15;19.40;99.90
16578;DHT22;8401;52.528;13.340;2023-04-24T12:22:51;19.40;99.90
16578;DHT22;8401;52.528;13.340;2023-04-24T12:25:21;19.60;99.90
16578;DHT22;8401;52.528;13.340;2023-04-24T12:27:53;19.90;99.90
16578;DHT22;8401;52.528;13.340;2023-04-24T12:30:19;20.10;99.90
16578;DHT22;8401;52.528;13.340;2023-04-24T12:32:46;20.20;99.90
16578;DHT22;8401;52.528;13.340;2023-04-24T12:35:13;20.40;99.90
16578;DHT22;8401;52.528;13.340;2023-04-24T12:37:41;20.50;99.90
16578;DHT22;8401;52.528;13.340;2023-04-24T12:40:10;20.70;99.90
16578;DHT22;8401;52.528;13.340;2023-04-24T12:42:43;20.60;99.90
16578;DHT22;8401;52.528;13.340;2023-04-24T12:45:08;20.40;99.90
16578;DHT22;8401;52.528;13.340;2023-04-24T12:47:35;20.20;99.90
16578;DHT22;8401;52.528;13.340;2023-04-24T12:50:02;19.90;99.90
16578;DHT22;8401;52.528;13.340;2023-04-24T12:52:28;19.90;99.90
16578;DHT22;8401;52.528;13.340;2023-04-24T12:54:56;19.70;99.90
16578;DHT22;8401;52.528;13.340;2023-04-24T12:57:23;19.00;99.90
16578;DHT22;8401;52.528;13.340;2023-04-24T12:59:49;18.40;99.90
16578;DHT22;8401;52.528;13.340;2023-04-24T13:02:16;18.00;99.90
16578;DHT22;8401;52.528;13.340;2023-04-24T13:04:45;18.00;99.90
16578;DHT22;8401;52.528;13.340;2023-04-24T13:07:15;18.00;99.90
16578;DHT22;8401;52.528;13.340;2023-04-24T13:09:41;17.90;99.90
16578;DHT22;8401;52.528;13.340;2023-04-24T13:12:07;18.00;99.90
16578;DHT22;8401;52.528;13.340;2023-04-24T13:14:33;18.10;99.90
16578;DHT22;8401;52.528;13.340;2023-04-24T13:16:59;18.30;99.90
16578;DHT22;8401;52.528;13.340;2023-04-24T13:19:25;18.70;99.90
16578;DHT22;8401;52.528;13.340;2023-04-24T13:21:52;18.90;99.90
16578;DHT22;8401;52.528;13.340;2023-04-24T13:24:18;18.80;99.90
16578;DHT22;8401;52.528;13.340;2023-04-24T13:26:43;18.60;99.90
16578;DHT22;8401;52.528;13.340;2023-04-24T13:29:09;18.50;99.90
16578;DHT22;8401;52.528;13.340;2023-04-24T13:31:35;18.20;99.90
16578;DHT22;8401;52.528;13.340;2023-04-24T13:34:02;18.30;99.90
16578;DHT22;8401;52.528;13.340;2023-04-24T13:36:28;18.40;99.90
16578;DHT22;8401;52.528;13.340;2023-04-24T13:38:54;18.30;99.90
16578;DHT22;8401;52.528;13.340;2023-04-24T13:41:20;18.20;99.90
16578;DHT22;8401;52.528;13.340;2023-04-24T13:43:45;17.80;99.90
16578;DHT22;8401;52.528;13.340;2023-04-24T13:46:11;17.70;99.90
16578;DHT22;8401;52.528;13.340;2023-04-24T13:48:36;18.00;99.90
16578;DHT22;8401;52.528;13.340;2023-04-24T13:51:02;18.20;99.90
16578;DHT22;8401;52.528;13.340;2023-04-24T13:53:28;18.40;99.90
16578;DHT22;8401;52.528;13.340;2023-04-24T13:55:53;18.40;99.90
16578;DHT22;8401;52.528;13.340;2023-04-24T13:58:19;18.30;99.90
16578;DHT22;8401;52.528;13.340;2023-04-24T14:00:44;18.50;99.90
16578;DHT22;8401;52.528;13.340;2023-04-24T14:03:10;18.60;99.90
16578;DHT22;8401;52.528;13.340;2023-04-24T14:05:36;18.50;99.90
16578;DHT22;8401;52.528;13.340;2023-04-24T14:08:02;18.30;99.90
16578;DHT22;8401;52.528;13.340;2023-04-24T14:10:27;18.30;99.90
16578;DHT22;8401;52.528;13.340;2023-04-24T14:12:53;18.40;99.90
16578;DHT22;8401;52.528;13.340;2023-04-24T14:15:19;18.40;99.90
16578;DHT22;8401;52.528;13.340;2023-04-24T14:17:45;18.50;99.90
16578;DHT22;8401;52.528;13.340;2023-04-24T14:20:14;18.50;99.90
16578;DHT22;8401;52.528;13.340;2023-04-24T14:22:39;18.60;99.90
16578;DHT22;8401;52.528;13.340;2023-04-24T14:25:06;18.40;99.90
16578;DHT22;8401;52.528;13.340;2023-04-24T14:27:32;18.30;99.90
16578;DHT22;8401;52.528;13.340;2023-04-24T14:30:00;18.30;99.90
16578;DHT22;8401;52.528;13.340;2023-04-24T14:32:25;18.30;99.90
16578;DHT22;8401;52.528;13.340;2023-04-24T14:34:51;18.40;99.90
16578;DHT22;8401;52.528;13.340;2023-04-24T14:37:16;18.70;99.90
16578;DHT22;8401;52.528;13.340;2023-04-24T14:39:42;18.70;99.90
16578;DHT22;8401;52.528;13.340;2023-04-24T14:42:08;18.70;99.90
16578;DHT22;8401;52.528;13.340;2023-04-24T14:44:33;18.90;99.90
16578;DHT22;8401;52.528;13.340;2023-04-24T14:46:59;18.80;99.90
16578;DHT22;8401;52.528;13.340;2023-04-24T14:49:25;18.50;99.90
16578;DHT22;8401;52.528;13.340;2023-04-24T14:51:51;18.50;99.90
16578;DHT22;8401;52.528;13.340;2023-04-24T14:54:17;18.20;99.90
16578;DHT22;8401;52.528;13.340;2023-04-24T14:56:42;18.00;99.90
16578;DHT22;8401;52.528;13.340;2023-04-24T14:59:10;17.80;99.90
16578;DHT22;8401;52.528;13.340;2023-04-24T15:01:36;18.00;99.90
16578;DHT22;8401;52.528;13.340;2023-04-24T15:04:01;18.20;99.90
16578;DHT22;8401;52.528;13.340;2023-04-24T15:06:27;18.10;99.90
16578;DHT22;8401;52.528;13.340;2023-04-24T15:08:53;18.00;99.90
16578;DHT22;8401;52.528;13.340;2023-04-24T15:11:19;17.80;99.90
16578;DHT22;8401;52.528;13.340;2023-04-24T15:13:45;17.80;99.90
16578;DHT22;8401;52.528;13.340;2023-04-24T15:16:11;17.70;99.90
16578;DHT22;8401;52.528;13.340;2023-04-24T15:18:36;17.70;99.90
16578;DHT22;8401;52.528;13.340;2023-04-24T15:21:02;17.80;99.90
16578;DHT22;8401;52.528;13.340;2023-04-24T15:23:28;17.80;99.90
16578;DHT22;8401;52.528;13.340;2023-04-24T15:25:54;17.40;99.90
16578;DHT22;8401;52.528;13.340;2023-04-24T15:28:20;17.30;99.90
16578;DHT22;8401;52.528;13.340;2023-04-24T15:30:47;17.00;99.90
16578;DHT22;8401;52.528;13.340;2023-04-24T15:33:13;16.90;99.90
16578;DHT22;8401;52.528;13.340;2023-04-24T15:35:39;16.80;99.90
16578;DHT22;8401;52.528;13.340;2023-04-24T15:38:05;16.60;99.90